createdAt,value
2016-01-07T00:00:44.344Z,97.7
2016-01-07T00:01:44.283Z,97.7
2016-01-07T00:02:44.240Z,97.7
2016-01-07T00:03:44.165Z,98.2
2016-01-07T00:04:44.152Z,98.6
2016-01-07T00:05:44.045Z,98.2
2016-01-07T00:06:44.220Z,98.7
2016-01-07T00:07:43.925Z,98.5
2016-01-07T00:08:43.897Z,98.3
2016-01-07T00:09:43.790Z,98
2016-01-07T00:10:43.965Z,98.5
2016-01-07T00:11:43.686Z,98.4
2016-01-07T00:12:43.720Z,98.4
2016-01-07T00:13:43.708Z,98.1
2016-01-07T00:14:43.491Z,97.9
2016-01-07T00:15:43.415Z,97.2
2016-01-07T00:16:43.449Z,97.2
2016-01-07T00:17:43.312Z,97
2016-01-07T00:18:43.283Z,96.9
2016-01-07T00:19:43.176Z,97.4
2016-01-07T00:20:43.129Z,97.8
2016-01-07T00:21:43.257Z,97.8
2016-01-07T00:22:42.979Z,97.5
2016-01-07T00:23:42.934Z,97.7
2016-01-07T00:24:42.844Z,97.9
2016-01-07T00:25:42.799Z,98.1
2016-01-07T00:26:42.865Z,97
2016-01-07T00:27:42.695Z,97.3
2016-01-07T00:28:42.620Z,97.5
2016-01-07T00:29:42.700Z,97.3
2016-01-07T00:30:42.484Z,98.1
2016-01-07T00:31:42.425Z,98
2016-01-07T00:32:42.380Z,98.2
2016-01-07T00:33:42.539Z,98.2
2016-01-07T00:34:42.292Z,97.5
2016-01-07T00:35:42.155Z,97.8
2016-01-07T00:36:42.345Z,98.1
2016-01-07T00:37:42.113Z,97.7
2016-01-07T00:38:41.992Z,97.8
2016-01-07T00:39:41.931Z,98.1
2016-01-07T00:40:41.856Z,97.9
2016-01-07T00:41:41.828Z,97.4
2016-01-07T00:42:41.799Z,98.2
2016-01-07T00:43:41.676Z,98.6
2016-01-07T00:44:41.633Z,97.8
2016-01-07T00:45:41.572Z,98.1
2016-01-07T00:46:41.731Z,98.2
2016-01-07T00:47:41.437Z,97.9
2016-01-07T00:48:41.377Z,97.5
2016-01-07T00:49:41.302Z,97.9
2016-01-07T00:50:41.305Z,97.7
2016-01-07T00:51:41.402Z,97.7
2016-01-07T00:52:41.122Z,97.9
2016-01-07T00:53:41.125Z,98.1
2016-01-07T00:54:41.035Z,98
2016-01-07T00:55:40.960Z,98.2
2016-01-07T00:56:40.977Z,97.7
2016-01-07T00:57:40.824Z,97.8
2016-01-07T00:58:40.748Z,97.7
2016-01-07T00:59:40.751Z,97.4
2016-01-07T01:00:40.628Z,97.5
2016-01-07T01:01:40.771Z,97.7
2016-01-07T01:02:40.509Z,97.7
2016-01-07T01:03:40.642Z,97.6
2016-01-07T01:04:40.363Z,97.8
2016-01-07T01:05:40.304Z,98.2
2016-01-07T01:06:40.290Z,98
2016-01-07T01:07:40.418Z,98.1
2016-01-07T01:08:40.186Z,98.2
2016-01-07T01:09:39.298Z,97.9
2016-01-07T01:10:40.003Z,98.2
2016-01-07T01:11:40.194Z,98.4
2016-01-07T01:12:39.900Z,98.1
2016-01-07T01:13:39.809Z,97.6
2016-01-07T01:14:39.765Z,97.7
2016-01-07T01:15:39.830Z,97.8
2016-01-07T01:16:39.630Z,97.6
2016-01-07T01:17:39.711Z,97.9
2016-01-07T01:18:39.495Z,98.4
2016-01-07T01:19:39.451Z,98.2
2016-01-07T01:20:39.656Z,98.1
2016-01-07T01:22:14.397Z,97.8
2016-01-07T01:22:39.256Z,98.1
2016-01-07T01:23:39.211Z,98.2
2016-01-07T01:24:39.121Z,98.2
2016-01-07T01:25:39.076Z,97.9
2016-01-07T01:26:39.064Z,98.1
2016-01-07T01:27:38.957Z,98.4
2016-01-07T01:28:38.882Z,98.3
2016-01-07T01:29:38.821Z,98.1
2016-01-07T01:30:38.746Z,97.9
2016-01-07T01:31:38.702Z,97.7
2016-01-07T01:32:38.642Z,97.8
2016-01-07T01:33:38.566Z,98
2016-01-07T01:34:38.554Z,97.4
2016-01-07T01:35:38.681Z,97.3
2016-01-07T01:36:38.387Z,97.7
2016-01-07T01:37:38.312Z,97.3
2016-01-07T01:38:38.252Z,96.8
2016-01-07T01:39:38.364Z,97.4
2016-01-07T01:40:38.132Z,97.7
2016-01-07T01:41:38.057Z,97.5
2016-01-07T01:42:38.028Z,97.1
2016-01-07T01:43:37.203Z,97.3
2016-01-07T01:44:38.206Z,97.5
2016-01-07T01:45:37.849Z,97.7
2016-01-07T01:46:37.758Z,98.1
2016-01-07T01:47:37.698Z,98.3
2016-01-07T01:48:36.951Z,97.7
2016-01-07T01:49:37.563Z,97.7
2016-01-07T01:50:37.519Z,97.1
2016-01-07T01:51:37.443Z,97.5
2016-01-07T01:52:37.400Z,97.5
2016-01-07T01:53:37.340Z,97.7
2016-01-07T01:54:37.264Z,97.9
2016-01-07T01:55:37.204Z,98.2
2016-01-07T01:56:37.160Z,98.2
2016-01-07T01:57:37.085Z,97.8
2016-01-07T01:58:37.024Z,98.2
2016-01-07T01:59:36.949Z,98
2016-01-07T02:00:36.905Z,97.9
2016-01-07T02:01:37.017Z,98.2
2016-01-07T02:02:36.793Z,98.2
2016-01-07T02:03:36.780Z,98.4
2016-01-07T02:04:36.830Z,98.6
2016-01-07T02:05:36.599Z,98
2016-01-07T02:06:36.679Z,98
2016-01-07T02:07:36.557Z,98.1
2016-01-07T02:08:36.434Z,98.3
2016-01-07T02:09:36.374Z,98.6
2016-01-07T02:10:36.299Z,97.7
2016-01-07T02:11:36.240Z,97.9
2016-01-07T02:12:36.258Z,98.3
2016-01-07T02:13:36.088Z,98.4
2016-01-07T02:14:36.045Z,98.2
2016-01-07T02:15:39.063Z,98.3
2016-01-07T02:16:35.910Z,98.4
2016-01-07T02:17:35.849Z,98.5
2016-01-07T02:18:36.024Z,99
2016-01-07T02:19:35.745Z,98.6
2016-01-07T02:20:35.717Z,98.7
2016-01-07T02:21:35.610Z,98.3
2016-01-07T02:22:35.566Z,98.3
2016-01-07T02:23:35.491Z,98.9
2016-01-07T02:24:35.650Z,98.7
2016-01-07T02:25:35.403Z,98.8
2016-01-07T02:26:35.358Z,98.7
2016-01-07T02:27:35.236Z,98.6
2016-01-07T02:28:35.208Z,98.6
2016-01-07T02:29:35.129Z,98.6
2016-01-07T02:30:35.039Z,97.9
2016-01-07T02:31:35.010Z,97.9
2016-01-07T02:32:34.919Z,98.4
2016-01-07T02:33:34.875Z,98.5
2016-01-07T02:34:34.814Z,98.1
2016-01-07T02:35:34.755Z,98.6
2016-01-07T02:36:34.820Z,98.5
2016-01-07T02:37:34.651Z,98.2
2016-01-07T02:38:34.575Z,97.8
2016-01-07T02:39:34.516Z,97.4
2016-01-07T02:40:34.441Z,97.3
2016-01-07T02:41:34.365Z,98
2016-01-07T02:42:34.555Z,98.3
2016-01-07T02:43:34.260Z,97.7
2016-01-07T02:44:34.202Z,97.8
2016-01-07T02:45:34.172Z,97.7
2016-01-07T02:46:34.082Z,98.1
2016-01-07T02:47:34.006Z,98.1
2016-01-07T02:48:34.165Z,97.7
2016-01-07T02:49:33.887Z,97.6
2016-01-07T02:50:33.843Z,97.9
2016-01-07T02:51:33.618Z,98.2
2016-01-07T02:52:33.704Z,98.3
2016-01-07T02:53:33.692Z,98.1
2016-01-07T02:54:33.606Z,98.2
2016-01-07T02:55:33.576Z,98.3
2016-01-07T02:56:33.454Z,98.6
2016-01-07T02:57:33.395Z,98.2
2016-01-07T02:58:33.398Z,98.1
2016-01-07T02:59:33.275Z,97.7
2016-01-07T03:00:33.215Z,97.3
2016-01-07T03:01:33.156Z,97
2016-01-07T03:02:33.095Z,97.5
2016-01-07T03:03:33.035Z,97.9
2016-01-07T03:04:32.943Z,97
2016-01-07T03:05:32.165Z,97.2
2016-01-07T03:06:32.871Z,96.7
2016-01-07T03:07:32.780Z,97.1
2016-01-07T03:08:32.721Z,97.7
2016-01-07T03:09:32.738Z,97.6
2016-01-07T03:10:32.820Z,97.4
2016-01-07T03:11:32.587Z,97.8
2016-01-07T03:12:32.465Z,97.6
2016-01-07T03:13:32.407Z,97.4
2016-01-07T03:14:32.362Z,97.2
2016-01-07T03:15:32.317Z,97.6
2016-01-07T03:16:32.226Z,97.2
2016-01-07T03:17:32.167Z,97.1
2016-01-07T03:18:32.107Z,97.2
2016-01-07T03:19:32.062Z,96.9
2016-01-07T03:20:31.988Z,97.1
2016-01-07T03:21:31.912Z,97.1
2016-01-07T03:22:31.915Z,98
2016-01-07T03:23:31.870Z,97.9
2016-01-07T03:24:31.717Z,97.9
2016-01-07T03:25:31.767Z,97.9
2016-01-07T03:26:31.597Z,97.5
2016-01-07T03:27:31.663Z,97.5
2016-01-07T03:28:31.665Z,97.8
2016-01-07T03:29:31.434Z,98.3
2016-01-07T03:30:31.405Z,97.7
2016-01-07T03:31:31.392Z,97.6
2016-01-07T03:32:31.238Z,97.5
2016-01-07T03:33:31.179Z,97.6
2016-01-07T03:34:31.306Z,97.8
2016-01-07T03:35:31.044Z,97.9
2016-01-07T03:36:30.999Z,97.9
2016-01-07T03:37:30.987Z,97.9
2016-01-07T03:38:30.896Z,97.9
2016-01-07T03:39:30.882Z,97.6
2016-01-07T03:40:30.744Z,97.8
2016-01-07T03:41:30.779Z,97.9
2016-01-07T03:42:30.610Z,98
2016-01-07T03:43:30.550Z,97.7
2016-01-07T03:44:30.505Z,98
2016-01-07T03:45:30.446Z,97.5
2016-01-07T03:46:30.371Z,97.4
2016-01-07T03:47:30.170Z,97.1
2016-01-07T03:48:29.516Z,97.1
2016-01-07T03:49:30.191Z,97.6
2016-01-07T03:50:30.132Z,97.8
2016-01-07T03:51:30.306Z,97.5
2016-01-07T03:52:29.996Z,96.8
2016-01-07T03:53:29.951Z,96.6
2016-01-07T03:54:29.877Z,97.1
2016-01-07T03:55:29.942Z,97.1
2016-01-07T03:56:29.773Z,97
2016-01-07T03:57:29.681Z,96.8
2016-01-07T03:58:29.856Z,97.5
2016-01-07T03:59:29.562Z,97.5
2016-01-07T04:00:29.533Z,97.4
2016-01-07T04:01:29.443Z,97
2016-01-07T04:02:29.382Z,97.5
2016-01-07T04:03:29.354Z,97.9
2016-01-07T04:04:29.295Z,97.6
2016-01-07T04:05:29.234Z,97
2016-01-07T04:06:29.174Z,97.1
2016-01-07T04:07:29.084Z,97.7
2016-01-07T04:08:29.024Z,97.2
2016-01-07T04:09:29.089Z,97.4
2016-01-07T04:10:28.904Z,97.4
2016-01-07T04:11:28.829Z,97
2016-01-07T04:12:28.800Z,97.3
2016-01-07T04:13:28.709Z,97.6
2016-01-07T04:14:28.664Z,98.1
2016-01-07T04:15:28.589Z,97.8
2016-01-07T04:16:28.530Z,97.8
2016-01-07T04:17:28.470Z,97
2016-01-07T04:18:28.425Z,97.1
2016-01-07T04:19:28.350Z,97.4
2016-01-07T04:20:28.275Z,97.7
2016-01-07T04:21:28.230Z,97.6
2016-01-07T04:22:28.154Z,97.1
2016-01-07T04:23:28.096Z,97.4
2016-01-07T04:24:28.035Z,97.6
2016-01-07T04:25:28.004Z,97.3
2016-01-07T04:26:27.898Z,97.1
2016-01-07T04:27:27.868Z,97.8
2016-01-07T04:28:27.824Z,97.3
2016-01-07T04:29:27.719Z,97.3
2016-01-07T04:30:27.642Z,97.5
2016-01-07T04:31:26.912Z,98
2016-01-07T04:32:27.539Z,98.1
2016-01-07T04:33:27.526Z,98.1
2016-01-07T04:34:27.434Z,97.3
2016-01-07T04:35:27.359Z,97.5
2016-01-07T04:36:27.332Z,97.5
2016-01-07T04:37:27.209Z,97.7
2016-01-07T04:38:27.368Z,97.3
2016-01-07T04:39:27.089Z,97.7
2016-01-07T04:40:27.061Z,98
2016-01-07T04:41:26.970Z,98.1
2016-01-07T04:42:26.909Z,98.2
2016-01-07T04:43:26.850Z,98.6
2016-01-07T04:44:27.024Z,98.3
2016-01-07T04:45:26.777Z,98.2
2016-01-07T04:46:26.639Z,98.3
2016-01-07T04:47:26.580Z,98.5
2016-01-07T04:48:26.536Z,98.5
2016-01-07T04:49:26.523Z,98.6
2016-01-07T04:50:26.431Z,98.7
2016-01-07T04:51:26.356Z,98.9
2016-01-07T04:52:26.280Z,98.6
2016-01-07T04:53:26.222Z,98.6
2016-01-07T04:54:26.177Z,98.5
2016-01-07T04:55:26.148Z,98.5
2016-01-07T04:56:26.041Z,98.3
2016-01-07T04:57:25.982Z,97.6
2016-01-07T04:58:25.906Z,97.9
2016-01-07T04:59:26.066Z,97.7
2016-01-07T05:00:26.052Z,98.4
2016-01-07T05:01:25.727Z,98.1
2016-01-07T05:02:25.636Z,98.3
2016-01-07T05:03:25.592Z,98.5
2016-01-07T05:04:25.532Z,98.7
2016-01-07T05:05:25.472Z,98.3
2016-01-07T05:06:25.397Z,97.9
2016-01-07T05:07:25.352Z,97.8
2016-01-07T05:08:25.293Z,97.8
2016-01-07T05:09:25.217Z,97.7
2016-01-07T05:10:25.157Z,97.5
2016-01-07T05:11:25.098Z,97.7
2016-01-07T05:12:25.038Z,97.8
2016-01-07T05:13:24.962Z,97.8
2016-01-07T05:14:24.949Z,97.8
2016-01-07T05:15:24.889Z,97.7
2016-01-07T05:16:24.799Z,97.7
2016-01-07T05:17:24.801Z,97.9
2016-01-07T05:18:24.710Z,98
2016-01-07T05:19:24.620Z,98
2016-01-07T05:20:24.528Z,98.3
2016-01-07T05:21:24.515Z,98.6
2016-01-07T05:22:24.425Z,98.6
2016-01-07T05:23:24.333Z,98.2
2016-01-07T05:24:24.289Z,98.6
2016-01-07T05:25:24.400Z,98.7
2016-01-07T05:26:24.216Z,98.3
2016-01-07T05:27:24.328Z,98.3
2016-01-07T05:28:24.050Z,98.3
2016-01-07T05:29:23.958Z,97.9
2016-01-07T05:30:23.962Z,97.9
2016-01-07T05:31:23.933Z,98.1
2016-01-07T05:32:23.794Z,98.2
2016-01-07T05:33:23.751Z,98.2
2016-01-07T05:34:23.676Z,97.9
2016-01-07T05:35:23.616Z,98.5
2016-01-07T05:36:23.540Z,99
2016-01-07T05:37:23.480Z,99
2016-01-07T05:38:23.436Z,98.8
2016-01-07T05:39:23.346Z,98.8
2016-01-07T05:40:23.285Z,98.9
2016-01-07T05:41:23.241Z,98.7
2016-01-07T05:42:23.182Z,98.9
2016-01-07T05:43:23.341Z,98.7
2016-01-07T05:44:23.030Z,98.9
2016-01-07T05:45:22.987Z,98.7
2016-01-07T05:46:23.129Z,99.1
2016-01-07T05:47:22.913Z,99
2016-01-07T05:48:22.791Z,99
2016-01-07T05:49:22.779Z,98.9
2016-01-07T05:50:22.906Z,99
2016-01-07T05:51:22.612Z,98.6
2016-01-07T05:52:22.598Z,98.6
2016-01-07T05:53:22.477Z,99
2016-01-07T05:54:22.637Z,98.7
2016-01-07T05:55:22.374Z,98.3
2016-01-07T05:56:22.313Z,97.9
2016-01-07T05:57:22.316Z,97.9
2016-01-07T05:58:22.179Z,98.1
2016-01-07T05:59:22.118Z,98.1
2016-01-07T06:00:22.074Z,98.3
2016-01-07T06:01:22.233Z,98.5
2016-01-07T06:02:21.950Z,98.2
2016-01-07T06:03:21.859Z,98.3
2016-01-07T06:04:21.831Z,98.3
2016-01-07T06:05:21.834Z,98.5
2016-01-07T06:06:21.711Z,98
2016-01-07T06:07:21.620Z,97.9
2016-01-07T06:08:21.622Z,98.2
2016-01-07T06:09:21.500Z,98
2016-01-07T06:10:21.456Z,97.7
2016-01-07T06:11:21.370Z,97.8
2016-01-07T06:12:21.310Z,97.7
2016-01-07T06:13:21.328Z,97.9
2016-01-07T06:14:21.188Z,97.9
2016-01-07T06:15:21.127Z,98.1
2016-01-07T06:16:21.083Z,98
2016-01-07T06:17:21.024Z,98.3
2016-01-07T06:18:20.948Z,98
2016-01-07T06:19:21.169Z,98.3
2016-01-07T06:20:20.829Z,98.2
2016-01-07T06:21:20.768Z,98.1
2016-01-07T06:22:20.694Z,98.2
2016-01-07T06:23:20.649Z,98.1
2016-01-07T06:24:20.574Z,98.3
2016-01-07T06:25:20.499Z,98.2
2016-01-07T06:26:20.470Z,98.3
2016-01-07T06:27:20.426Z,98.3
2016-01-07T06:28:20.444Z,98.6
2016-01-07T06:29:20.275Z,98.6
2016-01-07T06:30:20.247Z,98.7
2016-01-07T06:31:20.155Z,98.5
2016-01-07T06:32:20.096Z,98.7
2016-01-07T06:33:20.035Z,98.2
2016-01-07T06:34:19.960Z,97.9
2016-01-07T06:35:19.948Z,98.4
2016-01-07T06:36:19.903Z,98.6
2016-01-07T06:37:19.796Z,98.8
2016-01-07T06:38:19.753Z,98.3
2016-01-07T06:39:19.645Z,98
2016-01-07T06:40:19.634Z,98.4
2016-01-07T06:41:26.011Z,98.6
2016-01-07T06:42:19.498Z,98.5
2016-01-07T06:43:19.422Z,97.8
2016-01-07T06:44:19.378Z,98.1
2016-01-07T06:45:19.286Z,98.6
2016-01-07T06:46:19.227Z,98.7
2016-01-07T06:47:19.167Z,98.6
2016-01-07T06:48:19.155Z,98.7
2016-01-07T06:49:19.219Z,98.6
2016-01-07T06:50:19.003Z,97.9
2016-01-07T06:51:18.944Z,98.3
2016-01-07T06:52:18.884Z,98.7
2016-01-07T06:53:18.793Z,98.5
2016-01-07T06:54:18.780Z,98.6
2016-01-07T06:55:18.689Z,98.7
2016-01-07T06:56:18.614Z,98.2
2016-01-07T06:57:18.585Z,98.4
2016-01-07T06:58:18.510Z,98.8
2016-01-07T06:59:18.434Z,98.6
2016-01-07T07:00:18.374Z,98.6
2016-01-07T07:01:18.315Z,98.3
2016-01-07T07:02:18.520Z,98.4
2016-01-07T07:03:18.227Z,98.6
2016-01-07T07:04:18.338Z,98.2
2016-01-07T07:05:18.185Z,98.5
2016-01-07T07:06:18.015Z,98.4
2016-01-07T07:07:18.002Z,98.5
2016-01-07T07:08:17.912Z,98.8
2016-01-07T07:09:17.836Z,98.7
2016-01-07T07:10:17.917Z,98.9
2016-01-07T07:11:17.717Z,98.5
2016-01-07T07:12:17.641Z,98.5
2016-01-07T07:13:17.598Z,98.2
2016-01-07T07:14:17.506Z,98.1
2016-01-07T07:15:17.493Z,97.9
2016-01-07T07:16:17.433Z,98.4
2016-01-07T07:17:17.327Z,98.7
2016-01-07T07:18:17.392Z,98.4
2016-01-07T07:19:17.223Z,98.3
2016-01-07T07:20:17.132Z,98.5
2016-01-07T07:21:17.150Z,98.3
2016-01-07T07:22:17.012Z,98.6
2016-01-07T07:23:16.968Z,98.7
2016-01-07T07:24:16.923Z,98.6
2016-01-07T07:25:16.833Z,98
2016-01-07T07:26:16.773Z,98.2
2016-01-07T07:27:16.713Z,98
2016-01-07T07:28:16.638Z,98.1
2016-01-07T07:29:16.624Z,98.2
2016-01-07T07:30:16.533Z,98.4
2016-01-07T07:31:16.474Z,98.6
2016-01-07T07:32:16.430Z,98.6
2016-01-07T07:33:16.339Z,98.6
2016-01-07T07:34:16.325Z,98.3
2016-01-07T07:35:16.360Z,97.9
2016-01-07T07:36:16.175Z,98.2
2016-01-07T07:37:16.116Z,98.3
2016-01-07T07:38:16.102Z,98.2
2016-01-07T07:39:15.980Z,97.9
2016-01-07T07:40:15.951Z,98.1
2016-01-07T07:41:15.891Z,98.2
2016-01-07T07:42:15.801Z,98.3
2016-01-07T07:43:15.741Z,98.5
2016-01-07T07:44:15.681Z,98.3
2016-01-07T07:45:15.515Z,97.9
2016-01-07T07:46:15.533Z,98.3
2016-01-07T07:47:15.488Z,98.2
2016-01-07T07:48:15.429Z,98.2
2016-01-07T07:49:15.354Z,98.2
2016-01-07T07:50:15.293Z,98.2
2016-01-07T07:51:15.249Z,98.3
2016-01-07T07:52:15.159Z,98.4
2016-01-07T07:53:15.207Z,98.5
2016-01-07T07:54:15.055Z,98.2
2016-01-07T07:55:14.979Z,98.5
2016-01-07T07:56:14.935Z,98.8
2016-01-07T07:57:14.844Z,98.2
2016-01-07T07:58:14.815Z,98.5
2016-01-07T07:59:14.803Z,98.9
2016-01-07T08:00:14.727Z,99
2016-01-07T08:01:14.651Z,98.7
2016-01-07T08:02:17.279Z,98.2
2016-01-07T08:03:14.548Z,98.1
2016-01-07T08:04:14.472Z,98.4
2016-01-07T08:05:14.537Z,98.4
2016-01-07T08:06:14.556Z,98.9
2016-01-07T08:07:14.355Z,98.8
2016-01-07T08:08:14.217Z,98.9
2016-01-07T08:09:14.361Z,98.6
2016-01-07T08:10:14.458Z,98.6
2016-01-07T08:11:14.007Z,98.6
2016-01-07T08:12:14.150Z,98.1
2016-01-07T08:13:13.934Z,98.2
2016-01-07T08:14:13.969Z,98
2016-01-07T08:15:13.799Z,98
2016-01-07T08:16:13.724Z,98.2
2016-01-07T08:17:13.680Z,98.5
2016-01-07T08:18:13.683Z,98.7
2016-01-07T08:19:13.513Z,98.9
2016-01-07T08:20:13.453Z,99.2
2016-01-07T08:21:13.394Z,99.2
2016-01-07T08:22:13.333Z,98.8
2016-01-07T08:23:13.274Z,99
2016-01-07T08:24:13.211Z,98.9
2016-01-07T08:25:13.136Z,98.3
2016-01-07T08:26:13.092Z,98.6
2016-01-07T08:27:13.110Z,98.5
2016-01-07T08:28:12.972Z,98.6
2016-01-07T08:29:12.881Z,97.8
2016-01-07T08:30:13.087Z,97.6
2016-01-07T08:31:12.808Z,97.8
2016-01-07T08:32:12.732Z,98.1
2016-01-07T08:33:12.642Z,98.7
2016-01-07T08:34:12.582Z,98.7
2016-01-07T08:35:12.523Z,98.3
2016-01-07T08:36:12.463Z,98.2
2016-01-07T08:37:12.387Z,98
2016-01-07T08:38:12.343Z,98.3
2016-01-07T08:39:12.268Z,98.6
2016-01-07T08:40:12.348Z,98.8
2016-01-07T08:41:12.149Z,99
2016-01-07T08:42:12.088Z,98.8
2016-01-07T08:43:12.498Z,98.2
2016-01-07T08:44:12.187Z,98.2
2016-01-07T08:45:11.888Z,98.2
2016-01-07T08:46:11.831Z,98.1
2016-01-07T08:47:11.743Z,97.9
2016-01-07T08:48:11.671Z,97.8
2016-01-07T08:49:11.615Z,97.9
2016-01-07T08:50:11.750Z,97.8
2016-01-07T08:51:11.452Z,97.9
2016-01-07T08:52:11.403Z,97.8
2016-01-07T08:53:11.463Z,98
2016-01-07T08:54:11.134Z,98.2
2016-01-07T08:55:11.212Z,98.1
2016-01-07T08:56:11.166Z,98.3
2016-01-07T08:57:11.089Z,98.4
2016-01-07T08:58:11.012Z,98.5
2016-01-07T08:59:10.951Z,98.6
2016-01-07T09:00:10.921Z,97.6
2016-01-07T09:01:10.830Z,97.9
2016-01-07T09:02:10.815Z,97.7
2016-01-07T09:03:10.692Z,97.9
2016-01-07T09:04:09.773Z,98
2016-01-07T09:05:10.588Z,98
2016-01-07T09:06:10.497Z,98.1
2016-01-07T09:07:10.453Z,97.6
2016-01-07T09:08:10.439Z,97.8
2016-01-07T09:09:10.317Z,97.8
2016-01-07T09:10:10.274Z,97.6
2016-01-07T09:11:10.197Z,97.6
2016-01-07T09:12:10.169Z,97.7
2016-01-07T09:13:10.063Z,98.3
2016-01-07T09:14:10.019Z,98.3
2016-01-07T09:15:09.927Z,98.5
2016-01-07T09:16:09.883Z,98.6
2016-01-07T09:17:09.808Z,98.1
2016-01-07T09:18:09.795Z,97.9
2016-01-07T09:19:09.688Z,97.9
2016-01-07T09:20:09.660Z,98
2016-01-07T09:21:09.584Z,98.3
2016-01-07T09:22:09.510Z,97.9
2016-01-07T09:23:09.465Z,97.9
2016-01-07T09:24:09.655Z,97.7
2016-01-07T09:25:09.376Z,97
2016-01-07T09:26:09.301Z,96.9
2016-01-07T09:27:09.195Z,97.1
2016-01-07T09:28:09.134Z,97.4
2016-01-07T09:29:09.121Z,97.5
2016-01-07T09:30:08.999Z,97.2
2016-01-07T09:31:08.970Z,97.5
2016-01-07T09:32:08.958Z,97.5
2016-01-07T09:33:08.820Z,97.1
2016-01-07T09:34:08.807Z,97.2
2016-01-07T09:35:08.731Z,97.6
2016-01-07T09:36:08.656Z,97.4
2016-01-07T09:37:08.627Z,97.3
2016-01-07T09:38:08.536Z,97.4
2016-01-07T09:39:08.523Z,97.5
2016-01-07T09:40:08.447Z,97.5
2016-01-07T09:41:08.325Z,97.2
2016-01-07T09:42:08.281Z,97.4
2016-01-07T09:43:08.284Z,97.6
2016-01-07T09:44:08.178Z,97.9
2016-01-07T09:45:08.211Z,98.2
2016-01-07T09:46:08.041Z,97.8
2016-01-07T09:47:07.232Z,98.3
2016-01-07T09:48:08.236Z,97.8
2016-01-07T09:49:07.847Z,98.1
2016-01-07T09:50:07.802Z,97.5
2016-01-07T09:51:07.743Z,97.3
2016-01-07T09:52:07.652Z,97.6
2016-01-07T09:53:07.624Z,97.3
2016-01-07T09:54:07.549Z,97.6
2016-01-07T09:55:07.488Z,97.2
2016-01-07T09:56:07.663Z,96.9
2016-01-07T09:57:07.368Z,97.3
2016-01-07T09:58:07.293Z,96.7
2016-01-07T09:59:07.296Z,96.5
2016-01-07T10:00:07.190Z,96.8
2016-01-07T10:01:07.114Z,97.3
2016-01-07T10:02:07.039Z,96.9
2016-01-07T10:03:06.995Z,96.5
2016-01-07T10:04:06.982Z,96.7
2016-01-07T10:05:06.859Z,97.3
2016-01-07T10:06:06.800Z,97.1
2016-01-07T10:07:06.756Z,97.4
2016-01-07T10:08:06.665Z,97.5
2016-01-07T10:09:06.684Z,97
2016-01-07T10:10:06.592Z,96.7
2016-01-07T10:11:06.484Z,97.1
2016-01-07T10:12:06.659Z,97.5
2016-01-07T10:13:06.365Z,96.9
2016-01-07T10:14:06.306Z,97.1
2016-01-07T10:15:06.245Z,97.3
2016-01-07T10:16:06.202Z,96.7
2016-01-07T10:17:06.142Z,96.9
2016-01-07T10:18:06.067Z,96.8
2016-01-07T10:19:06.006Z,96.8
2016-01-07T10:20:06.009Z,96.9
2016-01-07T10:21:05.886Z,96.9
2016-01-07T10:22:05.811Z,96.8
2016-01-07T10:23:05.799Z,97
2016-01-07T10:24:05.692Z,97.6
2016-01-07T10:25:05.647Z,97.2
2016-01-07T10:26:05.604Z,97.3
2016-01-07T10:27:05.513Z,96.9
2016-01-07T10:28:05.547Z,96.7
2016-01-07T10:29:05.533Z,96.9
2016-01-07T10:30:04.583Z,97.3
2016-01-07T10:31:05.335Z,97.3
2016-01-07T10:32:05.260Z,97.4
2016-01-07T10:33:05.138Z,97.4
2016-01-07T10:34:05.079Z,97.6
2016-01-07T10:35:05.019Z,97.3
2016-01-07T10:36:04.972Z,97.2
2016-01-07T10:37:04.974Z,97.2
2016-01-07T10:38:04.821Z,96.9
2016-01-07T10:39:04.777Z,97.4
2016-01-07T10:40:04.701Z,97.3
2016-01-07T10:41:04.657Z,97.5
2016-01-07T10:42:04.613Z,97.1
2016-01-07T10:43:04.537Z,97.3
2016-01-07T10:44:04.509Z,97.5
2016-01-07T10:45:04.449Z,97.5
2016-01-07T10:46:04.342Z,97.9
2016-01-07T10:47:04.579Z,97.8
2016-01-07T10:48:04.207Z,97.3
2016-01-07T10:49:04.164Z,97.3
2016-01-07T10:50:04.181Z,97.7
2016-01-07T10:51:04.090Z,97.2
2016-01-07T10:52:03.984Z,97.2
2016-01-07T10:53:04.175Z,96.6
2016-01-07T10:54:03.864Z,96.9
2016-01-07T10:55:03.788Z,97.1
2016-01-07T10:56:03.729Z,97.5
2016-01-07T10:57:03.653Z,97.4
2016-01-07T10:58:03.641Z,97.2
2016-01-07T10:59:03.643Z,97.3
2016-01-07T11:00:18.883Z,97.5
2016-01-07T11:01:03.461Z,97.5
2016-01-07T11:02:03.370Z,97.9
2016-01-07T11:03:03.311Z,97.9
2016-01-07T11:04:03.282Z,97.7
2016-01-07T11:05:03.175Z,97.7
2016-01-07T11:06:03.130Z,97.6
2016-01-07T11:07:03.055Z,97.5
2016-01-07T11:08:02.261Z,97.9
2016-01-07T11:09:02.967Z,97.6
2016-01-07T11:10:02.877Z,97.4
2016-01-07T11:11:02.816Z,97.4
2016-01-07T11:12:02.788Z,97.6
2016-01-07T11:13:02.696Z,97.7
2016-01-07T11:14:02.732Z,97.6
2016-01-07T11:15:02.577Z,97.6
2016-01-07T11:16:02.517Z,97.7
2016-01-07T11:17:02.458Z,97.6
2016-01-07T11:18:02.382Z,97.9
2016-01-07T11:19:02.338Z,97.9
2016-01-07T11:20:02.278Z,97.9
2016-01-07T11:21:02.250Z,97.9
2016-01-07T11:22:02.299Z,98.1
2016-01-07T11:23:02.348Z,98
2016-01-07T11:24:02.258Z,97.9
2016-01-07T11:25:01.995Z,97.7
2016-01-07T11:26:01.889Z,97.9
2016-01-07T11:27:01.844Z,98.1
2016-01-07T11:28:01.785Z,98.3
2016-01-07T11:29:01.709Z,97.6
2016-01-07T11:30:01.650Z,97.9
2016-01-07T11:31:01.636Z,98
2016-01-07T11:32:01.545Z,98.1
2016-01-07T11:33:01.454Z,98.5
2016-01-07T11:34:01.410Z,98
2016-01-07T11:35:01.334Z,98.4
2016-01-07T11:36:01.275Z,98.8
2016-01-07T11:37:01.231Z,98.9
2016-01-07T11:38:01.155Z,99
2016-01-07T11:39:01.095Z,98.9
2016-01-07T11:40:01.052Z,99.1
2016-01-07T11:41:00.975Z,99
2016-01-07T11:42:00.947Z,99.1
2016-01-07T11:43:00.855Z,98.7
2016-01-07T11:44:00.827Z,98.6
2016-01-07T11:45:00.721Z,98.9
2016-01-07T11:46:00.661Z,98.7
2016-01-07T11:47:00.616Z,98.7
2016-01-07T11:48:00.557Z,98.7
2016-01-07T11:49:00.482Z,98.5
2016-01-07T11:50:00.437Z,98.6
2016-01-07T11:51:00.346Z,98.7
2016-01-07T11:52:00.287Z,99
2016-01-07T11:53:00.337Z,99.1
2016-01-07T11:54:00.168Z,98.8
2016-01-07T11:55:00.123Z,99.1
2016-01-07T11:56:00.063Z,99.1
2016-01-07T11:57:00.004Z,98.5
2016-01-07T11:57:59.990Z,98.4
2016-01-07T11:58:59.868Z,98.9
2016-01-07T11:59:59.809Z,99.4
2016-01-07T12:00:59.765Z,98.8
2016-01-07T12:01:59.907Z,98.5
2016-01-07T12:02:59.676Z,98.9
2016-01-07T12:03:59.585Z,99.1
2016-01-07T12:04:59.509Z,98.9
2016-01-07T12:05:59.481Z,98.8
2016-01-07T12:06:59.375Z,98.6
2016-01-07T12:07:59.314Z,98.9
2016-01-07T12:08:59.287Z,99.1
2016-01-07T12:09:59.211Z,99.1
2016-01-07T12:10:59.120Z,99.2
2016-01-07T12:11:59.075Z,99.2
2016-01-07T12:12:59.016Z,99.4
2016-01-07T12:13:59.003Z,99.6
2016-01-07T12:14:58.880Z,98.9
2016-01-07T12:15:58.820Z,99.1
2016-01-07T12:16:58.777Z,99.3
2016-01-07T12:17:58.717Z,98.9
2016-01-07T12:18:58.642Z,99.1
2016-01-07T12:19:58.597Z,99.5
2016-01-07T12:20:58.505Z,99.1
2016-01-07T12:21:58.461Z,98.6
2016-01-07T12:22:58.480Z,98.6
2016-01-07T12:23:58.326Z,98.7
2016-01-07T12:24:58.314Z,98.9
2016-01-07T12:25:58.207Z,98.3
2016-01-07T12:26:58.147Z,98.6
2016-01-07T12:27:58.135Z,98.8
2016-01-07T12:28:58.027Z,99.2
2016-01-07T12:29:57.999Z,98.7
2016-01-07T12:30:57.908Z,98.9
2016-01-07T12:31:57.848Z,99.2
2016-01-07T12:32:57.773Z,99.3
2016-01-07T12:33:57.713Z,99.2
2016-01-07T12:34:57.653Z,99.7
2016-01-07T12:35:57.624Z,99.7
2016-01-07T12:36:57.534Z,99.8
2016-01-07T12:37:57.692Z,99.6
2016-01-07T12:38:57.414Z,99.7
2016-01-07T12:39:57.354Z,99.5
2016-01-07T12:40:57.528Z,99.8
2016-01-07T12:41:57.234Z,99.9
2016-01-07T12:42:57.159Z,99.9
2016-01-07T12:43:57.131Z,99.8
2016-01-07T12:44:57.071Z,99.9
2016-01-07T12:45:56.980Z,99.9
2016-01-07T12:46:56.951Z,99.9
2016-01-07T12:47:56.860Z,99.6
2016-01-07T12:48:56.781Z,99.9
2016-01-07T12:49:56.817Z,99.9
2016-01-07T12:50:56.662Z,99.9
2016-01-07T12:51:56.619Z,99.7
2016-01-07T12:52:56.543Z,99.5
2016-01-07T12:53:56.499Z,99.6
2016-01-07T12:54:56.486Z,99.9
2016-01-07T12:55:56.364Z,99.7
2016-01-07T12:56:56.319Z,99.7
2016-01-07T12:57:56.244Z,99.9
2016-01-07T12:58:56.200Z,99.7
2016-01-07T12:59:56.124Z,99.9
2016-01-07T13:00:55.909Z,99.9
2016-01-07T13:01:55.989Z,99.7
2016-01-07T13:02:55.961Z,99.9
2016-01-07T13:03:55.901Z,99.8
2016-01-07T13:04:55.826Z,99.9
2016-01-07T13:05:55.844Z,99.9
2016-01-07T13:06:55.706Z,99.9
2016-01-07T13:07:55.677Z,99.9
2016-01-07T13:08:55.649Z,99.9
2016-01-07T13:09:55.510Z,99.9
2016-01-07T13:10:55.466Z,99.9
2016-01-07T13:11:55.438Z,99.9
2016-01-07T13:12:55.347Z,99.9
2016-01-07T13:13:55.287Z,99.9
2016-01-07T13:14:55.227Z,99.9
2016-01-07T13:15:55.168Z,99.9
2016-01-07T13:16:55.140Z,99.9
2016-01-07T13:17:55.049Z,99.9
2016-01-07T13:18:54.988Z,99.9
2016-01-07T13:19:54.929Z,99.9
2016-01-07T13:20:54.868Z,99.9
2016-01-07T13:21:54.809Z,99.9